createdAt,value
2019-03-10T00:00:10.447Z,3.00
2019-03-10T00:01:46.133Z,4.40
2019-03-10T00:03:24.729Z,6.60
2019-03-10T00:05:00.465Z,6.00
2019-03-10T00:06:36.514Z,4.40
2019-03-10T00:08:14.946Z,6.00
2019-03-10T00:09:50.535Z,6.20
2019-03-10T00:11:26.557Z,10.00
2019-03-10T00:13:05.301Z,9.00
2019-03-10T00:14:40.942Z,3.20
2019-03-10T00:16:16.816Z,6.00
2019-03-10T00:17:53.635Z,6.00
2019-03-10T00:19:30.766Z,3.80
2019-03-10T00:21:06.904Z,9.20
2019-03-10T00:22:43.714Z,5.20
2019-03-10T00:24:19.680Z,9.40
2019-03-10T00:25:55.382Z,7.40
2019-03-10T00:27:34.482Z,10.00
2019-03-10T00:29:10.375Z,7.00
2019-03-10T00:30:48.296Z,3.20
2019-03-10T00:32:23.999Z,9.60
2019-03-10T00:33:59.539Z,7.40
2019-03-10T00:35:38.042Z,7.80
2019-03-10T00:37:13.416Z,6.00
2019-03-10T00:39:12.347Z,7.40
2019-03-10T00:41:30.707Z,10.00
2019-03-10T00:44:08.393Z,8.60
2019-03-10T00:46:39.630Z,6.60
2019-03-10T00:49:07.905Z,6.20
2019-03-10T00:51:28.710Z,6.60
2019-03-10T00:53:08.055Z,9.80
2019-03-10T00:54:44.005Z,6.20
2019-03-10T00:56:19.951Z,0.00
2019-03-10T00:57:55.455Z,5.60
2019-03-10T00:59:31.267Z,0.40
2019-03-10T01:01:06.779Z,7.40
2019-03-10T01:02:42.211Z,4.00
2019-03-10T01:04:20.613Z,3.40
2019-03-10T01:06:03.322Z,3.00
2019-03-10T01:07:39.834Z,6.00
2019-03-10T01:09:16.992Z,6.80
2019-03-10T01:10:52.672Z,5.60
2019-03-10T01:12:30.408Z,6.40
2019-03-10T01:14:08.786Z,4.00
2019-03-10T01:15:45.689Z,5.40
2019-03-10T01:17:21.211Z,4.80
2019-03-10T01:18:56.755Z,6.00
2019-03-10T01:20:47.416Z,4.00
2019-03-10T01:22:30.257Z,4.40
2019-03-10T01:24:05.833Z,4.60
2019-03-10T01:25:43.804Z,8.60
2019-03-10T01:27:19.744Z,4.00
2019-03-10T01:28:56.139Z,7.00
2019-03-10T01:30:37.932Z,7.40
2019-03-10T01:32:48.682Z,5.60
2019-03-10T01:34:57.466Z,4.80
2019-03-10T01:36:31.203Z,1.00
2019-03-10T01:38:06.701Z,4.00
2019-03-10T01:39:42.437Z,4.00
2019-03-10T01:41:18.313Z,3.80
2019-03-10T01:42:53.790Z,4.80
2019-03-10T01:44:29.908Z,3.00
2019-03-10T01:46:07.886Z,6.60
2019-03-10T01:47:43.970Z,4.00
2019-03-10T01:49:22.125Z,5.60
2019-03-10T01:51:02.241Z,5.20
2019-03-10T01:52:36.659Z,6.00
2019-03-10T01:54:16.894Z,2.60
2019-03-10T01:55:54.917Z,6.00
2019-03-10T01:57:32.570Z,4.80
2019-03-10T01:59:08.540Z,3.00
2019-03-10T02:00:44.331Z,4.00
2019-03-10T02:02:25.551Z,3.00
2019-03-10T02:03:57.200Z,3.00
2019-03-10T02:05:32.785Z,4.00
2019-03-10T02:07:08.619Z,1.00
2019-03-10T02:08:44.549Z,3.40
2019-03-10T02:10:20.297Z,3.00
2019-03-10T02:11:55.950Z,3.00
2019-03-10T02:13:31.962Z,1.00
2019-03-10T02:15:08.408Z,3.00
2019-03-10T02:16:44.460Z,3.40
2019-03-10T02:18:20.014Z,4.00
2019-03-10T02:19:56.179Z,3.00
2019-03-10T02:21:35.294Z,3.60
2019-03-10T02:23:10.579Z,3.80
2019-03-10T02:24:46.416Z,3.40
2019-03-10T02:26:22.298Z,0.00
2019-03-10T02:27:57.599Z,6.00
2019-03-10T02:29:33.064Z,3.60
2019-03-10T02:31:13.437Z,3.00
2019-03-10T02:32:53.014Z,3.00
2019-03-10T02:34:30.629Z,2.60
2019-03-10T02:36:06.388Z,4.00
2019-03-10T02:37:42.197Z,3.20
2019-03-10T02:39:23.512Z,3.00
2019-03-10T02:40:58.971Z,4.40
2019-03-10T02:42:34.483Z,3.20
2019-03-10T02:44:09.860Z,3.40
2019-03-10T02:45:45.207Z,3.00
2019-03-10T02:47:21.561Z,4.80
2019-03-10T02:48:57.256Z,4.00
2019-03-10T02:50:32.730Z,4.80
2019-03-10T02:52:08.260Z,5.60
2019-03-10T02:53:43.646Z,5.60
2019-03-10T02:55:22.562Z,1.80
2019-03-10T02:56:58.106Z,4.00
2019-03-10T02:58:33.703Z,2.60
2019-03-10T03:00:11.070Z,4.00
2019-03-10T03:01:47.245Z,4.40
2019-03-10T03:03:23.097Z,2.60
2019-03-10T03:04:58.972Z,4.40
2019-03-10T03:06:35.105Z,3.40
2019-03-10T03:08:11.193Z,5.20
2019-03-10T03:09:48.056Z,4.80
2019-03-10T03:11:23.386Z,3.00
2019-03-10T03:12:59.667Z,6.20
2019-03-10T03:14:34.935Z,1.40
2019-03-10T03:16:12.795Z,5.20
2019-03-10T03:17:48.886Z,6.60
2019-03-10T03:19:24.202Z,3.20
2019-03-10T03:20:59.447Z,4.00
2019-03-10T03:22:35.683Z,4.00
2019-03-10T03:24:11.091Z,3.20
2019-03-10T03:25:46.777Z,3.00
2019-03-10T03:27:22.095Z,5.20
2019-03-10T03:28:57.342Z,6.40
2019-03-10T03:30:33.106Z,3.60
2019-03-10T03:32:08.422Z,0.00
2019-03-10T03:33:44.444Z,1.40
2019-03-10T03:35:54.453Z,3.00
2019-03-10T03:37:30.660Z,6.00
2019-03-10T03:39:20.152Z,3.60
2019-03-10T03:40:58.968Z,3.20
2019-03-10T03:42:34.804Z,5.20
2019-03-10T03:44:10.858Z,4.40
2019-03-10T03:45:46.177Z,4.00
2019-03-10T03:47:21.843Z,3.60
2019-03-10T03:48:57.513Z,3.00
2019-03-10T03:50:32.938Z,3.00
2019-03-10T03:52:08.711Z,3.80
2019-03-10T03:53:44.045Z,3.20
2019-03-10T03:55:19.773Z,4.40
2019-03-10T03:56:55.180Z,3.00
2019-03-10T03:58:30.552Z,4.40
2019-03-10T04:00:07.805Z,1.00
2019-03-10T04:01:50.413Z,4.40
2019-03-10T04:03:25.776Z,3.00
2019-03-10T04:05:01.025Z,3.40
2019-03-10T04:06:36.327Z,4.00
2019-03-10T04:08:11.816Z,4.40
2019-03-10T04:09:47.622Z,3.40
2019-03-10T04:11:22.964Z,2.60
2019-03-10T04:12:58.665Z,3.20
2019-03-10T04:14:34.052Z,5.40
2019-03-10T04:16:09.847Z,3.40
2019-03-10T04:17:48.546Z,4.00
2019-03-10T04:19:27.512Z,2.60
2019-03-10T04:21:02.874Z,2.60
2019-03-10T04:22:43.061Z,2.20
2019-03-10T04:24:18.221Z,1.00
2019-03-10T04:25:53.989Z,2.20
2019-03-10T04:27:29.530Z,5.20
2019-03-10T04:29:05.093Z,1.00
2019-03-10T04:30:40.578Z,1.00
2019-03-10T04:32:15.786Z,1.80
2019-03-10T04:33:51.868Z,1.00
2019-03-10T04:35:27.601Z,3.00
2019-03-10T04:37:03.194Z,3.00
2019-03-10T04:38:38.482Z,3.20
2019-03-10T04:40:14.074Z,1.40
2019-03-10T04:41:49.348Z,2.20
2019-03-10T04:43:25.130Z,1.00
2019-03-10T04:45:02.160Z,1.00
2019-03-10T04:46:37.674Z,2.20
2019-03-10T04:48:13.360Z,3.00
2019-03-10T04:49:48.618Z,3.20
2019-03-10T04:51:26.829Z,1.00
2019-03-10T04:53:02.304Z,2.20
2019-03-10T04:54:56.574Z,0.40
2019-03-10T04:56:53.595Z,3.00
2019-03-10T04:58:28.898Z,1.00
2019-03-10T05:00:05.975Z,1.80
2019-03-10T05:01:42.608Z,1.80
2019-03-10T05:03:18.443Z,1.00
2019-03-10T05:04:54.614Z,0.00
2019-03-10T05:06:30.462Z,0.00
2019-03-10T05:08:06.096Z,0.80
2019-03-10T05:09:42.038Z,3.00
2019-03-10T05:11:17.823Z,0.40
2019-03-10T05:12:53.705Z,1.00
2019-03-10T05:14:29.202Z,1.00
2019-03-10T05:16:05.027Z,1.00
2019-03-10T05:17:41.256Z,2.60
2019-03-10T05:19:17.654Z,1.00
2019-03-10T05:20:57.831Z,2.20
2019-03-10T05:22:33.082Z,1.00
2019-03-10T05:24:18.370Z,1.80
2019-03-10T05:25:53.729Z,1.00
2019-03-10T05:27:29.076Z,0.00
2019-03-10T05:29:04.838Z,1.00
2019-03-10T05:30:40.325Z,0.20
2019-03-10T05:32:15.979Z,1.00
2019-03-10T05:33:51.320Z,1.00
2019-03-10T05:35:28.907Z,0.00
2019-03-10T05:37:05.383Z,0.00
2019-03-10T05:38:40.734Z,0.60
2019-03-10T05:40:16.564Z,0.20
2019-03-10T05:41:52.142Z,0.20
2019-03-10T05:43:27.541Z,0.20
2019-03-10T05:45:04.484Z,1.00
2019-03-10T05:46:39.803Z,0.00
2019-03-10T05:48:15.624Z,0.00
2019-03-10T05:49:50.945Z,0.40
2019-03-10T05:51:26.833Z,5.60
2019-03-10T05:53:02.196Z,3.00
2019-03-10T05:54:37.700Z,4.00
2019-03-10T05:56:13.527Z,1.80
2019-03-10T05:57:49.165Z,1.80
2019-03-10T05:59:24.411Z,0.20
2019-03-10T06:00:59.683Z,0.00
2019-03-10T06:02:34.989Z,0.60
2019-03-10T06:04:10.712Z,0.20
2019-03-10T06:05:45.940Z,1.60
2019-03-10T06:07:21.321Z,3.20
2019-03-10T06:08:56.878Z,0.80
2019-03-10T06:10:32.915Z,0.00
2019-03-10T06:12:08.473Z,4.00
2019-03-10T06:13:52.937Z,0.60
2019-03-10T06:15:28.592Z,2.20
2019-03-10T06:17:07.826Z,0.00
2019-03-10T06:18:42.864Z,0.00
2019-03-10T06:20:18.804Z,4.40
2019-03-10T06:21:56.692Z,3.00
2019-03-10T06:23:32.412Z,0.40
2019-03-10T06:25:10.905Z,4.00
2019-03-10T06:26:52.551Z,0.00
2019-03-10T06:28:28.756Z,3.00
2019-03-10T06:30:05.774Z,0.60
2019-03-10T06:31:43.307Z,0.00
2019-03-10T06:33:21.733Z,0.00
2019-03-10T06:34:57.419Z,1.00
2019-03-10T06:36:32.727Z,1.80
2019-03-10T06:38:08.167Z,0.60
2019-03-10T06:39:43.424Z,1.00
2019-03-10T06:41:18.684Z,1.00
2019-03-10T06:42:55.970Z,0.00
2019-03-10T06:44:31.391Z,0.00
2019-03-10T06:46:06.687Z,0.00
2019-03-10T06:47:42.165Z,0.00
2019-03-10T06:49:17.927Z,1.40
2019-03-10T06:50:55.024Z,0.00
2019-03-10T06:52:34.424Z,0.00
2019-03-10T06:54:07.995Z,0.00
2019-03-10T06:55:43.310Z,0.00
2019-03-10T06:57:19.187Z,0.80
2019-03-10T06:58:55.265Z,1.00
2019-03-10T07:00:30.848Z,0.00
2019-03-10T07:02:06.554Z,0.00
2019-03-10T07:03:42.087Z,0.00
2019-03-10T07:05:18.132Z,0.00
2019-03-10T07:06:53.675Z,1.00
2019-03-10T07:08:32.500Z,0.00
2019-03-10T07:10:08.900Z,0.00
2019-03-10T07:11:44.350Z,0.00
2019-03-10T07:13:20.486Z,0.00
2019-03-10T07:14:57.641Z,0.60
2019-03-10T07:16:33.302Z,0.00
2019-03-10T07:18:11.564Z,0.00
2019-03-10T07:19:52.660Z,0.00
2019-03-10T07:21:28.991Z,0.00
2019-03-10T07:23:06.888Z,0.00
2019-03-10T07:24:45.091Z,0.60
2019-03-10T07:26:25.806Z,0.00
2019-03-10T07:28:18.777Z,0.60
2019-03-10T07:30:06.677Z,0.00
2019-03-10T07:31:56.933Z,0.00
2019-03-10T07:34:07.732Z,0.00
2019-03-10T07:36:01.180Z,0.00
2019-03-10T07:37:55.199Z,0.00
2019-03-10T07:40:07.841Z,0.00
2019-03-10T07:42:11.710Z,0.00
2019-03-10T07:44:06.925Z,0.00
2019-03-10T07:46:22.235Z,0.00
2019-03-10T07:48:17.379Z,0.00
2019-03-10T07:50:10.329Z,0.00
2019-03-10T07:51:58.409Z,0.00
2019-03-10T07:53:59.848Z,0.00
2019-03-10T07:55:54.778Z,0.00
2019-03-10T07:57:58.237Z,0.00
2019-03-10T07:59:47.245Z,0.00
2019-03-10T08:01:49.753Z,0.00
2019-03-10T08:03:56.739Z,1.00
2019-03-10T08:05:57.406Z,0.00
2019-03-10T08:07:59.714Z,0.00
2019-03-10T08:10:00.575Z,0.20
2019-03-10T08:12:03.154Z,0.00
2019-03-10T08:14:07.802Z,0.00
2019-03-10T08:18:50.292Z,0.40
2019-03-10T08:20:46.403Z,1.40
2019-03-10T08:22:39.186Z,0.00
2019-03-10T08:24:40.221Z,0.00
2019-03-10T08:26:42.240Z,0.00
2019-03-10T08:28:35.099Z,0.80
2019-03-10T08:30:40.831Z,0.00
2019-03-10T08:32:41.977Z,0.00
2019-03-10T08:34:38.930Z,1.00
2019-03-10T08:36:51.939Z,3.00
2019-03-10T08:39:10.112Z,0.00
2019-03-10T08:41:02.792Z,1.00
2019-03-10T08:42:49.510Z,0.00
2019-03-10T08:44:57.162Z,0.00
2019-03-10T08:47:09.365Z,1.00
2019-03-10T08:48:55.247Z,1.00
2019-03-10T08:50:53.287Z,1.40
2019-03-10T08:52:52.986Z,1.00
2019-03-10T08:54:52.230Z,1.80
2019-03-10T08:56:41.787Z,1.00
2019-03-10T08:58:33.136Z,1.00
2019-03-10T09:00:44.117Z,1.00
2019-03-10T09:02:44.551Z,3.00
2019-03-10T09:04:59.064Z,3.00
2019-03-10T09:07:06.108Z,3.00
2019-03-10T09:09:02.916Z,3.00
2019-03-10T09:10:46.142Z,4.40
2019-03-10T09:12:33.906Z,6.00
2019-03-10T09:14:34.096Z,4.80
2019-03-10T09:16:26.943Z,3.60
2019-03-10T09:18:16.087Z,3.40
2019-03-10T09:20:28.356Z,3.20
2019-03-10T09:22:16.823Z,4.40
2019-03-10T09:24:24.842Z,4.60
2019-03-10T09:26:37.950Z,8.60
2019-03-10T09:28:35.581Z,8.20
2019-03-10T09:30:43.704Z,7.00
2019-03-10T09:32:46.821Z,6.60
2019-03-10T09:34:40.941Z,6.00
2019-03-10T09:36:30.475Z,10.60
2019-03-10T09:38:15.222Z,6.40
2019-03-10T09:40:12.856Z,9.00
2019-03-10T09:42:17.415Z,12.00
2019-03-10T09:44:14.930Z,9.80
2019-03-10T09:46:16.589Z,6.20
2019-03-10T09:48:27.792Z,9.20
2019-03-10T09:50:16.830Z,6.60
2019-03-10T09:52:19.331Z,7.00
2019-03-10T09:54:34.649Z,7.80
2019-03-10T09:56:23.414Z,6.60
2019-03-10T09:58:34.894Z,3.00
2019-03-10T10:00:34.376Z,5.20
2019-03-10T10:02:32.664Z,4.40
2019-03-10T10:04:28.740Z,3.00
2019-03-10T10:06:24.548Z,8.20
2019-03-10T10:08:31.632Z,3.00
2019-03-10T10:10:53.214Z,3.80
2019-03-10T10:13:01.830Z,3.80
2019-03-10T10:15:06.967Z,3.20
2019-03-10T10:17:15.121Z,2.60
2019-03-10T10:19:11.187Z,1.40
2019-03-10T10:21:08.713Z,1.00
2019-03-10T10:23:02.421Z,1.00
2019-03-10T10:24:55.763Z,1.00
2019-03-10T10:26:46.495Z,0.00
2019-03-10T10:28:30.379Z,3.20
2019-03-10T10:30:26.388Z,3.40
2019-03-10T10:32:17.846Z,3.80
2019-03-10T10:34:10.489Z,1.00
2019-03-10T10:36:08.719Z,1.00
2019-03-10T10:38:04.180Z,3.60
2019-03-10T10:40:07.995Z,1.00
2019-03-10T10:42:04.464Z,3.00
2019-03-10T10:44:03.469Z,1.00
2019-03-10T10:46:12.505Z,6.80
2019-03-10T10:48:05.343Z,0.00
2019-03-10T10:50:02.961Z,1.00
2019-03-10T10:52:01.851Z,3.40
2019-03-10T10:54:09.523Z,4.00
2019-03-10T10:56:14.636Z,3.00
2019-03-10T10:58:02.322Z,1.00
2019-03-10T11:00:08.750Z,3.80
2019-03-10T11:02:07.228Z,3.00
2019-03-10T11:04:23.247Z,2.60
2019-03-10T11:06:15.857Z,3.00
2019-03-10T11:08:13.186Z,5.20
2019-03-10T11:10:10.596Z,1.00
2019-03-10T11:12:13.725Z,1.00
2019-03-10T11:14:10.314Z,3.00
2019-03-10T11:16:20.545Z,1.00
2019-03-10T11:18:23.822Z,3.00
2019-03-10T11:20:18.789Z,6.00
2019-03-10T11:22:05.341Z,3.20
2019-03-10T11:23:55.440Z,3.40
2019-03-10T11:25:58.828Z,4.40
2019-03-10T11:27:41.997Z,3.00
2019-03-10T11:29:36.721Z,2.60
2019-03-10T11:31:51.410Z,1.00
2019-03-10T11:34:03.309Z,3.00
2019-03-10T11:35:58.878Z,3.00
2019-03-10T11:38:01.325Z,3.00
2019-03-10T11:40:01.517Z,1.00
2019-03-10T11:42:13.389Z,1.00
2019-03-10T11:44:28.480Z,3.00
2019-03-10T11:46:51.984Z,1.00
2019-03-10T11:48:52.820Z,0.80
2019-03-10T11:50:49.667Z,1.40
2019-03-10T11:52:49.678Z,1.00
2019-03-10T11:54:48.201Z,1.80
2019-03-10T11:57:00.356Z,3.00
2019-03-10T11:58:50.403Z,4.80
2019-03-10T12:00:37.448Z,3.00
2019-03-10T12:02:25.187Z,1.80
2019-03-10T12:04:22.502Z,1.00
2019-03-10T12:06:16.312Z,2.60
2019-03-10T12:08:10.499Z,1.00
2019-03-10T12:09:48.271Z,1.00
2019-03-10T12:11:32.250Z,1.80
2019-03-10T12:13:07.269Z,3.60
2019-03-10T12:14:45.887Z,8.60
2019-03-10T12:16:25.880Z,6.40
2019-03-10T12:18:01.885Z,7.00
2019-03-10T12:19:40.042Z,4.00
2019-03-10T12:21:16.070Z,9.80
2019-03-10T12:22:52.438Z,4.00
2019-03-10T12:24:34.256Z,3.00
2019-03-10T12:26:13.182Z,8.60
2019-03-10T12:27:52.263Z,5.20
2019-03-10T12:29:28.529Z,9.20
2019-03-10T12:31:15.409Z,3.40
2019-03-10T12:32:55.700Z,2.60
2019-03-10T12:34:53.147Z,3.20
2019-03-10T12:36:35.831Z,3.00
2019-03-10T12:38:18.747Z,1.20
2019-03-10T12:40:00.944Z,3.00
2019-03-10T12:41:41.715Z,3.40
2019-03-10T12:43:29.566Z,3.00
2019-03-10T12:45:06.784Z,0.00
2019-03-10T12:46:47.443Z,3.20
2019-03-10T12:48:23.336Z,3.00
2019-03-10T12:50:04.877Z,3.40
2019-03-10T12:51:40.307Z,3.00
2019-03-10T12:53:17.555Z,4.40
2019-03-10T12:54:54.274Z,3.00
2019-03-10T12:56:36.335Z,4.40
2019-03-10T12:58:35.787Z,3.80
2019-03-10T13:00:23.612Z,1.80
2019-03-10T13:02:10.263Z,5.20
2019-03-10T13:03:46.153Z,3.40
2019-03-10T13:05:21.682Z,3.00
2019-03-10T13:07:04.661Z,3.00
2019-03-10T13:08:43.933Z,0.60
2019-03-10T13:10:22.392Z,3.40
2019-03-10T13:12:00.293Z,3.20
2019-03-10T13:13:40.972Z,4.40
2019-03-10T13:15:36.841Z,4.00
2019-03-10T13:17:20.235Z,3.00
2019-03-10T13:19:05.711Z,4.00
2019-03-10T13:20:45.861Z,3.20
2019-03-10T13:22:22.424Z,1.00
2019-03-10T13:24:02.264Z,3.00
2019-03-10T13:25:53.324Z,2.20
2019-03-10T13:27:29.112Z,3.00
2019-03-10T13:29:05.280Z,0.80
2019-03-10T13:30:42.821Z,5.20
2019-03-10T13:32:20.457Z,4.00
2019-03-10T13:34:02.544Z,6.00
2019-03-10T13:35:40.857Z,5.80
2019-03-10T13:37:22.440Z,6.00
2019-03-10T13:39:01.043Z,4.00
2019-03-10T13:40:45.187Z,7.80
2019-03-10T13:42:45.958Z,3.20
2019-03-10T13:44:25.252Z,4.40
2019-03-10T13:46:05.547Z,1.80
2019-03-10T13:47:50.750Z,2.80
2019-03-10T13:49:29.953Z,6.40
2019-03-10T13:51:06.611Z,2.60
2019-03-10T13:52:59.099Z,4.00
2019-03-10T13:54:41.036Z,5.60
2019-03-10T13:56:27.983Z,4.20
2019-03-10T13:58:25.223Z,6.00
2019-03-10T14:00:07.731Z,3.20
2019-03-10T14:02:02.116Z,2.20
2019-03-10T14:03:42.696Z,3.00
2019-03-10T14:05:26.208Z,4.40
2019-03-10T14:07:11.293Z,2.60
2019-03-10T14:08:50.892Z,3.20
2019-03-10T14:10:29.173Z,3.00
2019-03-10T14:12:15.210Z,6.40
2019-03-10T14:14:00.727Z,6.20
2019-03-10T14:15:45.036Z,6.40
2019-03-10T14:18:00.633Z,3.00
2019-03-10T14:19:40.878Z,7.00
2019-03-10T14:21:17.496Z,3.20
2019-03-10T14:22:53.470Z,5.20
2019-03-10T14:24:33.405Z,1.00
2019-03-10T14:26:26.320Z,3.20
2019-03-10T14:27:59.287Z,4.80
2019-03-10T14:29:44.350Z,4.00
2019-03-10T14:31:23.143Z,1.00
2019-03-10T14:33:00.420Z,3.60
2019-03-10T14:34:41.798Z,0.00
2019-03-10T14:36:20.047Z,1.00
2019-03-10T14:38:00.973Z,1.00
2019-03-10T14:39:42.150Z,2.20
2019-03-10T14:41:18.120Z,0.60
2019-03-10T14:42:53.957Z,0.80
2019-03-10T14:44:35.127Z,1.40
2019-03-10T14:46:11.093Z,0.40
2019-03-10T14:47:50.363Z,0.00
2019-03-10T14:49:27.754Z,0.40
2019-03-10T14:51:07.105Z,1.00
2019-03-10T14:52:45.495Z,0.80
2019-03-10T14:54:22.997Z,0.00
2019-03-10T14:56:01.835Z,1.00
2019-03-10T14:57:41.931Z,1.00
2019-03-10T14:59:37.326Z,0.20
2019-03-10T15:01:12.575Z,1.00
2019-03-10T15:02:48.562Z,1.00
2019-03-10T15:04:24.885Z,0.80
2019-03-10T15:06:05.284Z,1.00
2019-03-10T15:07:45.371Z,0.00
2019-03-10T15:09:24.267Z,1.40
2019-03-10T15:10:59.882Z,0.40
2019-03-10T15:12:35.863Z,0.00
2019-03-10T15:14:15.271Z,1.80
2019-03-10T15:16:01.735Z,1.00
2019-03-10T15:17:43.229Z,1.00
2019-03-10T15:19:22.713Z,0.60
2019-03-10T15:20:59.259Z,3.00
2019-03-10T15:22:40.165Z,0.00
2019-03-10T15:24:17.205Z,3.40
2019-03-10T15:25:59.961Z,3.00
2019-03-10T15:27:42.314Z,0.60
2019-03-10T15:29:20.165Z,2.60
2019-03-10T15:30:58.295Z,1.00
2019-03-10T15:32:36.355Z,6.00
2019-03-10T15:34:34.397Z,1.40
2019-03-10T15:36:20.286Z,6.00
2019-03-10T15:37:49.740Z,5.40
2019-03-10T15:39:27.283Z,1.80
2019-03-10T15:41:05.372Z,1.00
2019-03-10T15:42:45.820Z,1.40
2019-03-10T15:44:22.194Z,4.00
2019-03-10T15:46:20.393Z,4.00
2019-03-10T15:47:58.837Z,0.60
2019-03-10T15:49:36.457Z,4.40
2019-03-10T15:51:22.695Z,0.60
2019-03-10T15:53:06.098Z,4.00
2019-03-10T15:54:47.678Z,0.80
2019-03-10T15:56:26.879Z,0.00
2019-03-10T15:58:05.190Z,2.20
2019-03-10T15:59:44.079Z,2.80
2019-03-10T16:01:21.874Z,4.60
2019-03-10T16:03:02.462Z,4.40
2019-03-10T16:04:42.108Z,3.80
2019-03-10T16:06:21.047Z,0.20
2019-03-10T16:08:00.663Z,1.00
2019-03-10T16:09:57.509Z,1.80
2019-03-10T16:11:36.464Z,1.00
2019-03-10T16:13:17.882Z,1.80
2019-03-10T16:15:09.265Z,1.80
2019-03-10T16:16:45.355Z,5.60
2019-03-10T16:18:21.241Z,1.00
2019-03-10T16:19:57.301Z,3.00
2019-03-10T16:21:33.751Z,2.60
2019-03-10T16:23:15.403Z,4.00
2019-03-10T16:24:52.587Z,0.20
2019-03-10T16:26:40.141Z,1.80
2019-03-10T16:28:55.685Z,1.40
2019-03-10T16:30:40.157Z,1.40
2019-03-10T16:32:55.369Z,0.80
2019-03-10T16:34:40.560Z,3.20
2019-03-10T16:36:47.957Z,0.00
2019-03-10T16:38:23.575Z,1.80
2019-03-10T16:40:12.027Z,0.80
2019-03-10T16:41:50.573Z,1.00
2019-03-10T16:43:33.622Z,3.00
2019-03-10T16:45:22.904Z,1.80
2019-03-10T16:47:07.610Z,3.00
2019-03-10T16:48:55.532Z,1.40
2019-03-10T16:50:34.392Z,0.00
2019-03-10T16:52:22.023Z,1.00
2019-03-10T16:54:01.517Z,0.00
2019-03-10T16:55:43.384Z,1.00
2019-03-10T16:57:24.977Z,3.00
2019-03-10T16:59:04.044Z,0.40
2019-03-10T17:00:42.694Z,0.00
2019-03-10T17:02:19.418Z,0.00
2019-03-10T17:04:04.881Z,0.20
2019-03-10T17:05:46.146Z,0.00
2019-03-10T17:07:25.384Z,0.60
2019-03-10T17:09:34.063Z,1.00
2019-03-10T17:11:19.324Z,0.60
2019-03-10T17:12:59.993Z,0.60
2019-03-10T17:14:45.295Z,0.00
2019-03-10T17:16:26.352Z,0.40
2019-03-10T17:18:08.253Z,0.00
2019-03-10T17:20:35.792Z,0.00
2019-03-10T17:22:23.192Z,4.00
2019-03-10T17:24:23.620Z,1.00
2019-03-10T17:26:08.590Z,1.00
2019-03-10T17:27:52.577Z,0.00
2019-03-10T17:29:47.105Z,0.00
2019-03-10T17:31:39.262Z,1.00
2019-03-10T17:33:26.023Z,0.80
2019-03-10T17:35:06.868Z,1.00
2019-03-10T17:37:27.260Z,0.40
2019-03-10T17:41:00.490Z,6.20
2019-03-10T17:43:08.514Z,6.20
2019-03-10T17:45:06.005Z,8.60
2019-03-10T17:47:09.732Z,8.20
2019-03-10T17:48:50.092Z,8.60
2019-03-10T17:54:41.805Z,11.60
2019-03-10T17:56:33.433Z,10.00
2019-03-10T17:58:34.071Z,6.20
2019-03-10T18:00:37.265Z,9.00
2019-03-10T18:02:20.614Z,8.40
2019-03-10T18:04:23.305Z,7.80
2019-03-10T18:06:22.517Z,8.60
2019-03-10T18:11:23.827Z,8.20
2019-03-10T18:13:15.164Z,12.60
2019-03-10T18:15:37.028Z,12.00
2019-03-10T18:17:17.768Z,12.60
2019-03-10T18:19:17.456Z,10.80
2019-03-10T18:21:09.079Z,9.60
2019-03-10T18:24:53.434Z,8.00
2019-03-10T18:26:32.125Z,2.00
2019-03-10T18:28:19.674Z,4.40
2019-03-10T18:30:02.963Z,4.40
2019-03-10T18:31:44.928Z,2.80
2019-03-10T18:33:31.675Z,4.60
2019-03-10T18:35:14.388Z,1.40
2019-03-10T18:37:15.983Z,3.20
2019-03-10T18:38:56.812Z,5.20
2019-03-10T18:40:32.341Z,4.00
2019-03-10T18:42:16.037Z,3.40
2019-03-10T18:43:57.603Z,3.00
2019-03-10T18:45:34.901Z,4.20
2019-03-10T18:47:17.186Z,5.20
2019-03-10T18:48:57.242Z,0.60
2019-03-10T18:50:39.057Z,5.60
2019-03-10T18:52:19.904Z,4.00
2019-03-10T18:54:02.128Z,1.80
2019-03-10T18:55:34.448Z,3.40
2019-03-10T18:57:20.406Z,1.00
2019-03-10T18:59:07.276Z,3.00
2019-03-10T19:00:46.569Z,3.40
2019-03-10T19:02:28.327Z,3.60
2019-03-10T19:04:13.340Z,1.00
2019-03-10T19:05:49.000Z,0.40
2019-03-10T19:07:26.776Z,2.40
2019-03-10T19:09:16.594Z,3.00
2019-03-10T19:11:02.020Z,1.80
2019-03-10T19:12:40.526Z,2.60
2019-03-10T19:14:24.779Z,1.40
2019-03-10T19:16:07.336Z,0.80
2019-03-10T19:17:47.778Z,1.00
2019-03-10T19:19:34.521Z,2.20
2019-03-10T19:21:14.155Z,1.00
2019-03-10T19:22:56.945Z,3.00
2019-03-10T19:24:49.787Z,6.20
2019-03-10T19:26:33.829Z,1.00
2019-03-10T19:28:23.431Z,0.20
2019-03-10T19:30:28.747Z,3.40
2019-03-10T19:32:12.573Z,4.00
2019-03-10T19:33:53.534Z,1.00
2019-03-10T19:35:38.026Z,4.00
2019-03-10T19:37:17.745Z,0.00
2019-03-10T19:38:53.618Z,1.00
2019-03-10T19:40:31.983Z,5.60
2019-03-10T19:42:17.859Z,1.00
2019-03-10T19:44:04.926Z,3.00
2019-03-10T19:45:57.787Z,5.80
2019-03-10T19:47:39.654Z,0.60
2019-03-10T19:49:25.000Z,4.40
2019-03-10T19:51:03.062Z,3.00
2019-03-10T19:53:01.917Z,3.20
2019-03-10T19:54:39.757Z,1.40
2019-03-10T19:56:19.523Z,1.40
2019-03-10T19:58:06.103Z,2.60
2019-03-10T19:59:53.352Z,3.00
2019-03-10T20:01:36.968Z,2.20
2019-03-10T20:03:25.276Z,1.00
2019-03-10T20:05:06.579Z,4.80
2019-03-10T20:06:43.521Z,1.00
2019-03-10T20:08:21.897Z,3.80
2019-03-10T20:10:11.017Z,4.00
2019-03-10T20:11:49.828Z,3.00
2019-03-10T20:13:26.927Z,5.20
2019-03-10T20:15:07.153Z,3.00
2019-03-10T20:17:07.078Z,5.60
2019-03-10T20:18:49.952Z,1.80
2019-03-10T20:20:32.411Z,3.20
2019-03-10T20:22:12.922Z,5.40
2019-03-10T20:24:05.484Z,2.20
2019-03-10T20:25:37.304Z,2.80
2019-03-10T20:27:16.350Z,3.20
2019-03-10T20:29:00.222Z,4.00
2019-03-10T20:30:41.991Z,0.00
2019-03-10T20:32:28.688Z,0.80
2019-03-10T20:34:05.547Z,0.20
2019-03-10T20:35:50.650Z,5.20
2019-03-10T20:37:27.366Z,4.60
2019-03-10T20:39:17.990Z,3.00
2019-03-10T20:41:06.414Z,11.60
2019-03-10T20:42:54.644Z,11.60
2019-03-10T20:44:50.572Z,6.40
2019-03-10T20:46:31.550Z,0.00
2019-03-10T20:48:10.815Z,1.00
2019-03-10T20:49:52.117Z,1.00
2019-03-10T20:51:33.781Z,1.00
2019-03-10T20:53:11.011Z,0.00
2019-03-10T20:54:49.607Z,0.00
2019-03-10T20:56:28.736Z,0.00
2019-03-10T20:58:08.424Z,0.00
2019-03-10T21:00:00.534Z,0.00
2019-03-10T21:01:40.129Z,0.00
2019-03-10T21:03:28.052Z,0.00
2019-03-10T21:05:01.690Z,0.00
2019-03-10T21:06:42.436Z,0.00
2019-03-10T21:08:31.827Z,0.00
2019-03-10T21:10:10.795Z,0.00
2019-03-10T21:11:57.767Z,0.00
2019-03-10T21:13:54.034Z,0.00
2019-03-10T21:15:26.917Z,0.00
2019-03-10T21:17:02.719Z,1.00
2019-03-10T21:18:44.636Z,0.00
2019-03-10T21:20:22.038Z,0.00
2019-03-10T21:22:25.459Z,0.40
2019-03-10T21:24:10.251Z,0.00
2019-03-10T21:25:47.101Z,0.00
2019-03-10T21:27:27.652Z,0.00
2019-03-10T21:29:05.483Z,0.00
2019-03-10T21:30:42.557Z,1.00
2019-03-10T21:32:22.654Z,0.80
2019-03-10T21:34:01.077Z,1.00
2019-03-10T21:35:40.265Z,1.00
2019-03-10T21:37:18.356Z,1.40
2019-03-10T21:38:54.897Z,2.20
2019-03-10T21:40:32.742Z,3.00
2019-03-10T21:42:10.300Z,1.00
2019-03-10T21:43:49.374Z,0.40
2019-03-10T21:45:25.462Z,3.00
2019-03-10T21:47:02.852Z,3.00
2019-03-10T21:48:40.424Z,1.40
2019-03-10T21:50:17.061Z,2.60
2019-03-10T21:51:55.738Z,0.80
2019-03-10T21:53:38.995Z,3.40
2019-03-10T21:55:19.051Z,3.00
2019-03-10T21:57:03.199Z,0.40
2019-03-10T21:58:39.574Z,3.40
2019-03-10T22:00:22.043Z,3.00
2019-03-10T22:01:57.107Z,4.20
2019-03-10T22:03:41.915Z,0.00
2019-03-10T22:05:17.677Z,0.00
2019-03-10T22:06:54.349Z,1.00
2019-03-10T22:08:42.108Z,1.00
2019-03-10T22:10:27.996Z,3.00
2019-03-10T22:12:02.359Z,2.60
2019-03-10T22:13:46.853Z,3.20
2019-03-10T22:15:24.496Z,0.60
2019-03-10T22:17:00.652Z,3.60
2019-03-10T22:18:36.977Z,1.40
2019-03-10T22:20:16.306Z,4.00
2019-03-10T22:21:52.430Z,3.40
2019-03-10T22:23:29.046Z,4.80
2019-03-10T22:26:56.163Z,3.00
2019-03-10T22:28:33.585Z,2.60
2019-03-10T22:30:13.784Z,4.00
2019-03-10T22:32:02.125Z,6.00
2019-03-10T22:33:41.765Z,6.00
2019-03-10T22:35:26.759Z,1.40
2019-03-10T22:37:06.432Z,4.00
2019-03-10T22:38:48.110Z,1.00
2019-03-10T22:40:23.944Z,2.20
2019-03-10T22:42:02.049Z,1.00
2019-03-10T22:43:43.728Z,3.00
2019-03-10T22:45:19.103Z,4.80
2019-03-10T22:46:54.632Z,4.80
2019-03-10T22:48:32.819Z,4.00
2019-03-10T22:50:10.375Z,4.80
2019-03-10T22:51:47.653Z,3.40
2019-03-10T22:53:25.416Z,3.00
2019-03-10T22:55:22.418Z,4.80
2019-03-10T22:56:59.125Z,1.00
2019-03-10T22:58:35.505Z,4.00
2019-03-10T23:00:16.059Z,3.00
2019-03-10T23:01:51.973Z,4.40
2019-03-10T23:03:27.644Z,8.20
2019-03-10T23:05:02.804Z,6.20
2019-03-10T23:06:38.660Z,6.00
2019-03-10T23:08:14.021Z,6.60
2019-03-10T23:09:49.163Z,8.60
2019-03-10T23:11:24.689Z,3.00
2019-03-10T23:13:00.015Z,3.40
2019-03-10T23:14:37.924Z,6.00
2019-03-10T23:16:14.457Z,5.80
2019-03-10T23:17:50.209Z,6.80
2019-03-10T23:19:25.727Z,4.00
2019-03-10T23:21:07.400Z,6.60